»·PEaware :: AAL485 KBFL-KLAS

AAL485 :: KBFL-KLAS

FLIGHT INFORMATION

Flight Status: Arrived
Operator:
American Airlines
More flights by this operator :: More flights under this callsign
Pilot: Anonymous 39875 (39875)
Aircraft: EMBRAER EMB-170/175
(E170)
More flights by this aircraft type
Origin: KBFL Meadows
United States
Destination: KLAS Harry Reid Intl
United States
More flights between these airports :: More routes between these airports
Route: MEADO5 PMD HELDE NNAVY MISEN RNDRZ2
File this flight plan on PilotEdge
Remarks: RMK / SIMBRIEF
Altitude:
(Current/Filed)
27,000ft
Speed:
(Current/Filed)
410kts
Departed: 15-Jan-23 12:19 PM
Arrived: 15-Jan-23 01:05 PM
Distance/Time
Traveled:
195nm/0:45
Distance/Time
To Go:
Arrived

Flight Plot

Page will automatically refresh every two minutes.

Flight plan parsing failed; only flown route is shown


Map Options




Map Legend


Flown Route
Filed Route
Departure Airport
Arrival Airport
Navaid (VOR, NDB)
Fix

Horizontal Profiles

Position Reports

Time Latitude Longitude Heading Altitude Ground
Speed
15-Jan-23 11:59 35.436905 -119.054872 44 517ft 0kts
15-Jan-23 12:00 35.436905 -119.054872 44 517ft 0kts
15-Jan-23 12:01 35.436905 -119.054872 44 517ft 0kts
15-Jan-23 12:02 35.436905 -119.054872 44 517ft 0kts
15-Jan-23 12:03 35.436905 -119.054872 44 517ft 0kts
15-Jan-23 12:04 35.436905 -119.054872 44 517ft 0kts
15-Jan-23 12:05 35.436905 -119.054872 44 517ft 0kts
15-Jan-23 12:06 35.436905 -119.054872 44 517ft 0kts
15-Jan-23 12:07 35.436905 -119.054872 44 517ft 0kts
15-Jan-23 12:08 35.436905 -119.054872 44 517ft 0kts
15-Jan-23 12:09 35.436905 -119.054872 44 517ft 0kts
15-Jan-23 12:10 35.436766 -119.055063 59 517ft 2kts
15-Jan-23 12:11 35.436828 -119.055547 135 517ft 0kts
15-Jan-23 12:12 35.436828 -119.055547 135 517ft 0kts
15-Jan-23 12:13 35.436230 -119.055126 200 517ft 4kts
15-Jan-23 12:14 35.433366 -119.053365 135 517ft 17kts
15-Jan-23 12:15 35.429200 -119.048316 134 517ft 21kts
15-Jan-23 12:16 35.426409 -119.044964 135 517ft 8kts
15-Jan-23 12:17 35.425748 -119.046444 317 517ft 17kts
15-Jan-23 12:18 35.451748 -119.079048 313 1722ft 194kts
15-Jan-23 12:19 35.489675 -119.128798 312 4243ft 201kts
15-Jan-23 12:20 35.525882 -119.181892 281 6716ft 207kts
15-Jan-23 12:21 35.486554 -119.226334 189 9292ft 246kts
15-Jan-23 12:22 35.428031 -119.169338 127 11870ft 336kts
15-Jan-23 12:23 35.364378 -119.073709 134 14400ft 380kts
15-Jan-23 12:24 35.292016 -118.972620 135 16909ft 408kts
15-Jan-23 12:25 35.214901 -118.865290 136 19131ft 433kts
15-Jan-23 12:26 35.133192 -118.751902 136 21337ft 456kts
15-Jan-23 12:27 35.047070 -118.632807 137 23544ft 479kts
15-Jan-23 12:28 34.955678 -118.507043 137 25592ft 520kts
15-Jan-23 12:29 34.857069 -118.371615 137 26831ft 550kts
15-Jan-23 12:30 34.754355 -118.230949 137 26897ft 559kts
15-Jan-23 12:31 34.664072 -118.075542 113 26888ft 577kts
15-Jan-23 12:32 34.651815 -117.884554 75 26885ft 571kts
15-Jan-23 12:33 34.672314 -117.692435 78 26876ft 572kts
15-Jan-23 12:34 34.692119 -117.501174 78 26893ft 571kts
15-Jan-23 12:35 34.727015 -117.315084 62 26903ft 557kts
15-Jan-23 12:36 34.784291 -117.141289 60 26884ft 555kts
15-Jan-23 12:37 34.841734 -116.966463 60 26864ft 554kts
15-Jan-23 12:38 34.898768 -116.792538 58 26862ft 552kts
15-Jan-23 12:39 34.973018 -116.633398 45 26597ft 535kts
15-Jan-23 12:40 35.056523 -116.485094 46 24834ft 525kts
15-Jan-23 12:41 35.145212 -116.348526 37 23372ft 494kts
15-Jan-23 12:42 35.236602 -116.229776 38 22022ft 469kts
15-Jan-23 12:43 35.318891 -116.116508 39 20665ft 432kts
15-Jan-23 12:44 35.396090 -116.010105 38 19348ft 390kts
15-Jan-23 12:45 35.466112 -115.913719 38 18255ft 366kts
15-Jan-23 12:46 35.531670 -115.823342 39 17243ft 345kts
15-Jan-23 12:47 35.594209 -115.736725 40 16240ft 333kts
15-Jan-23 12:48 35.655881 -115.653513 40 15331ft 325kts
15-Jan-23 12:49 35.715934 -115.572573 40 14479ft 316kts
15-Jan-23 12:50 35.786897 -115.514881 24 13700ft 302kts
15-Jan-23 12:51 35.859261 -115.463904 26 13000ft 297kts
15-Jan-23 12:52 35.930126 -115.414172 26 12235ft 294kts
15-Jan-23 12:53 35.998686 -115.360754 47 11321ft 290kts
15-Jan-23 12:54 36.010330 -115.267795 94 10432ft 280kts
15-Jan-23 12:55 36.006079 -115.174702 95 9574ft 261kts
15-Jan-23 12:56 36.001179 -115.087832 96 8816ft 247kts
15-Jan-23 12:57 35.998832 -115.007047 92 8037ft 224kts
15-Jan-23 12:58 36.000974 -114.930605 70 7441ft 231kts
15-Jan-23 12:59 36.051457 -114.905637 328 5928ft 202kts
15-Jan-23 13:00 36.074113 -114.960274 268 4641ft 175kts
15-Jan-23 13:01 36.073928 -115.016448 265 3862ft 146kts
15-Jan-23 13:02 36.073670 -115.066145 267 3150ft 140kts
15-Jan-23 13:03 36.073766 -115.113229 267 2429ft 135kts
15-Jan-23 13:04 36.073713 -115.142752 276 2191ft 24kts
15-Jan-23 13:05 36.075940 -115.146608 0 2191ft 13kts
15-Jan-23 13:06 36.078493 -115.147733 63 2191ft 13kts
15-Jan-23 13:07 36.078351 -115.144711 95 2191ft 15kts
15-Jan-23 13:08 36.078281 -115.139456 89 2191ft 16kts
15-Jan-23 13:09 36.078480 -115.135348 47 2191ft 10kts
15-Jan-23 13:10 36.079939 -115.134781 314 2191ft 4kts
15-Jan-23 13:11 36.080026 -115.134889 314 2191ft 0kts
15-Jan-23 13:12 36.080026 -115.134889 314 2191ft 0kts

Navigation Log

Ident Type
Flight plan parsing failed, navigation log unavailable